createdAt,value
2023-04-23T00:00:14.359Z,100109.72
2023-04-23T00:02:45.249Z,100107.16
2023-04-23T00:05:13.982Z,100114.34
2023-04-23T00:07:42.777Z,100104.78
2023-04-23T00:10:11.069Z,100110.00
2023-04-23T00:12:39.283Z,100110.13
2023-04-23T00:15:07.743Z,100113.09
2023-04-23T00:17:35.535Z,100112.41
2023-04-23T00:20:03.422Z,100115.75
2023-04-23T00:22:31.179Z,100117.59
2023-04-23T00:24:58.794Z,100117.59
2023-04-23T00:27:26.338Z,100106.38
2023-04-23T00:29:53.999Z,100104.69
2023-04-23T00:32:22.804Z,100101.19
2023-04-23T00:34:51.284Z,100103.84
2023-04-23T00:37:18.873Z,100108.06
2023-04-23T00:39:46.484Z,100099.19
2023-04-23T00:42:14.268Z,100099.19
2023-04-23T00:44:43.667Z,100098.78
2023-04-23T00:47:12.372Z,100097.78
2023-04-23T00:49:42.702Z,100087.09
2023-04-23T00:52:10.368Z,100081.63
2023-04-23T00:54:37.959Z,100088.63
2023-04-23T00:57:08.055Z,100097.66
2023-04-23T00:59:36.298Z,100092.44
2023-04-23T01:02:04.111Z,100091.72
2023-04-23T01:04:33.069Z,100091.06
2023-04-23T01:07:00.989Z,100090.34
2023-04-23T01:09:29.108Z,100098.22
2023-04-23T01:11:58.143Z,100098.22
2023-04-23T01:14:26.145Z,100098.53
2023-04-23T01:16:54.076Z,100108.19
2023-04-23T01:19:21.751Z,100096.69
2023-04-23T01:21:51.380Z,100106.66
2023-04-23T01:24:19.371Z,100107.50
2023-04-23T01:26:47.027Z,100098.34
2023-04-23T01:29:15.160Z,100092.06
2023-04-23T01:31:43.647Z,100085.00
2023-04-23T01:34:11.482Z,100089.38
2023-04-23T01:36:39.252Z,100089.22
2023-04-23T01:39:06.937Z,100090.22
2023-04-23T01:41:36.151Z,100086.72
2023-04-23T01:44:03.918Z,100081.66
2023-04-23T01:46:31.916Z,100079.97
2023-04-23T01:48:59.866Z,100084.63
2023-04-23T01:51:27.432Z,100083.22
2023-04-23T01:53:54.971Z,100083.50
2023-04-23T01:56:26.068Z,100076.66
2023-04-23T01:58:53.840Z,100080.44
2023-04-23T02:01:21.556Z,100073.03
2023-04-23T02:03:51.010Z,100074.31
2023-04-23T02:06:18.716Z,100081.78
2023-04-23T02:08:46.948Z,100068.84
2023-04-23T02:11:15.100Z,100069.28
2023-04-23T02:13:42.591Z,100073.09
2023-04-23T02:16:10.516Z,100066.19
2023-04-23T02:18:38.090Z,100072.38
2023-04-23T02:21:06.542Z,100067.19
2023-04-23T02:23:34.563Z,100069.03
2023-04-23T02:26:02.172Z,100069.31
2023-04-23T02:28:29.674Z,100064.09
2023-04-23T02:30:57.244Z,100066.94
2023-04-23T02:33:25.972Z,100066.22
2023-04-23T02:35:53.527Z,100060.31
2023-04-23T02:38:21.134Z,100065.09
2023-04-23T02:40:48.759Z,100064.38
2023-04-23T02:43:16.354Z,100058.66
2023-04-23T02:45:44.950Z,100071.28
2023-04-23T02:48:13.054Z,100057.28
2023-04-23T02:50:41.655Z,100063.84
2023-04-23T02:53:09.236Z,100072.13
2023-04-23T02:55:37.047Z,100063.44
2023-04-23T02:58:04.611Z,100069.19
2023-04-23T03:00:34.575Z,100065.13
2023-04-23T03:03:02.369Z,100073.41
2023-04-23T03:05:30.304Z,100067.53
2023-04-23T03:07:57.822Z,100071.47
2023-04-23T03:10:25.537Z,100071.75
2023-04-23T03:12:53.142Z,100073.00
2023-04-23T03:15:21.092Z,100077.06
2023-04-23T03:17:48.964Z,100081.00
2023-04-23T03:20:16.651Z,100081.97
2023-04-23T03:22:44.428Z,100076.91
2023-04-23T03:25:12.299Z,100077.91
2023-04-23T03:27:40.740Z,100077.06
2023-04-23T03:30:09.169Z,100076.50
2023-04-23T03:32:36.938Z,100074.94
2023-04-23T03:35:05.031Z,100070.72
2023-04-23T03:37:33.456Z,100077.16
2023-04-23T03:40:07.115Z,100073.94
2023-04-23T03:42:37.476Z,100075.66
2023-04-23T03:45:06.402Z,100072.28
2023-04-23T03:47:34.883Z,100073.09
2023-04-23T03:50:03.184Z,100065.28
2023-04-23T03:52:31.123Z,100055.44
2023-04-23T03:54:59.138Z,100061.88
2023-04-23T03:57:31.941Z,100060.06
2023-04-23T04:00:16.201Z,100065.53
2023-04-23T04:02:44.157Z,100065.81
2023-04-23T04:05:12.063Z,100063.16
2023-04-23T04:07:41.209Z,100072.25
2023-04-23T04:10:09.286Z,100069.03
2023-04-23T04:12:36.997Z,100064.09
2023-04-23T04:15:05.219Z,100069.72
2023-04-23T04:17:32.784Z,100064.66
2023-04-23T04:20:00.678Z,100065.78
2023-04-23T04:22:28.264Z,100065.91
2023-04-23T04:24:56.320Z,100070.81
2023-04-23T04:27:23.952Z,100063.22
2023-04-23T04:30:03.418Z,100069.78
2023-04-23T04:32:34.538Z,100066.25
2023-04-23T04:35:02.725Z,100067.63
2023-04-23T04:45:29.193Z,100068.50
2023-04-23T04:47:56.797Z,100068.88
2023-04-23T04:50:24.703Z,100071.13
2023-04-23T04:52:52.245Z,100067.88
2023-04-23T04:55:20.472Z,100073.44
2023-04-23T04:57:48.058Z,100074.66
2023-04-23T05:00:29.481Z,100072.53
2023-04-23T05:02:57.974Z,100071.09
2023-04-23T05:05:26.934Z,100066.31
2023-04-23T05:07:54.976Z,100068.38
2023-04-23T05:10:22.489Z,100073.97
2023-04-23T05:12:51.950Z,100067.94
2023-04-23T05:15:19.823Z,100077.97
2023-04-23T05:17:47.501Z,100077.16
2023-04-23T05:20:15.382Z,100071.00
2023-04-23T05:22:42.990Z,100076.16
2023-04-23T05:25:12.189Z,100065.72
2023-04-23T05:27:40.979Z,100076.53
2023-04-23T05:30:10.411Z,100073.47
2023-04-23T05:32:38.873Z,100075.19
2023-04-23T05:35:07.170Z,100078.81
2023-04-23T05:37:34.938Z,100077.28
2023-04-23T05:40:02.897Z,100079.34
2023-04-23T05:42:34.448Z,100082.25
2023-04-23T05:45:02.929Z,100075.38
2023-04-23T05:47:32.204Z,100075.25
2023-04-23T05:50:00.149Z,100075.56
2023-04-23T05:52:27.887Z,100078.28
2023-04-23T05:54:55.494Z,100084.53
2023-04-23T05:57:23.361Z,100079.00
2023-04-23T05:59:51.187Z,100077.25
2023-04-23T06:02:18.775Z,100078.56
2023-04-23T06:04:47.002Z,100078.88
2023-04-23T06:07:15.431Z,100080.78
2023-04-23T06:09:42.971Z,100083.75
2023-04-23T06:12:11.517Z,100083.94
2023-04-23T06:14:39.381Z,100080.53
2023-04-23T06:17:07.145Z,100086.00
2023-04-23T06:19:34.752Z,100079.47
2023-04-23T06:22:02.368Z,100093.00
2023-04-23T06:24:30.357Z,100089.53
2023-04-23T06:26:57.971Z,100089.06
2023-04-23T06:29:26.868Z,100091.66
2023-04-23T06:32:03.625Z,100092.22
2023-04-23T06:34:31.608Z,100092.34
2023-04-23T06:36:59.163Z,100094.69
2023-04-23T06:39:26.882Z,100095.97
2023-04-23T06:41:54.695Z,100097.50
2023-04-23T06:44:35.308Z,100091.84
2023-04-23T06:47:04.150Z,100097.38
2023-04-23T06:49:31.903Z,100095.50
2023-04-23T06:51:59.464Z,100097.75
2023-04-23T06:54:26.950Z,100105.78
2023-04-23T06:56:54.527Z,100096.56
2023-04-23T06:59:22.663Z,100109.31
2023-04-23T07:01:54.386Z,100101.94
2023-04-23T07:04:22.069Z,100099.00
2023-04-23T07:06:49.625Z,100103.06
2023-04-23T07:09:17.175Z,100099.41
2023-04-23T07:11:44.907Z,100099.88
2023-04-23T07:14:12.529Z,100107.06
2023-04-23T07:16:40.182Z,100102.13
2023-04-23T07:19:07.848Z,100105.34
2023-04-23T07:21:36.022Z,100101.41
2023-04-23T07:24:07.040Z,100109.75
2023-04-23T07:26:36.212Z,100104.97
2023-04-23T07:29:04.827Z,100093.53
2023-04-23T07:31:32.559Z,100099.38
2023-04-23T07:34:00.147Z,100107.06
2023-04-23T07:36:27.915Z,100097.16
2023-04-23T07:38:55.521Z,100100.59
2023-04-23T07:41:23.187Z,100102.75
2023-04-23T07:43:51.022Z,100105.91
2023-04-23T07:46:18.744Z,100110.78
2023-04-23T07:48:46.405Z,100103.66
2023-04-23T07:51:13.997Z,100108.47
2023-04-23T07:53:41.633Z,100113.06
2023-04-23T07:56:09.288Z,100113.47
2023-04-23T07:58:36.839Z,100115.28
2023-04-23T08:01:04.655Z,100125.47
2023-04-23T08:03:32.436Z,100120.66
2023-04-23T08:06:00.167Z,100116.91
2023-04-23T08:08:27.769Z,100124.44
2023-04-23T08:10:55.398Z,100120.44
2023-04-23T08:13:22.937Z,100121.44
2023-04-23T08:15:52.183Z,100123.75
2023-04-23T08:18:19.958Z,100121.84
2023-04-23T08:20:47.689Z,100115.34
2023-04-23T08:23:15.511Z,100122.63
2023-04-23T08:25:43.428Z,100116.25
2023-04-23T08:28:10.991Z,100108.34
2023-04-23T08:30:38.938Z,100118.72
2023-04-23T08:33:06.545Z,100116.28
2023-04-23T08:35:34.119Z,100115.31
2023-04-23T08:38:02.281Z,100121.13
2023-04-23T08:40:32.457Z,100120.28
2023-04-23T08:42:59.990Z,100125.88
2023-04-23T08:45:27.736Z,100123.66
2023-04-23T08:48:02.543Z,100130.03
2023-04-23T08:50:31.194Z,100124.03
2023-04-23T08:52:59.207Z,100130.31
2023-04-23T08:55:26.872Z,100126.84
2023-04-23T08:57:58.587Z,100133.38
2023-04-23T09:00:26.271Z,100134.13
2023-04-23T09:02:54.347Z,100127.84
2023-04-23T09:05:22.736Z,100127.31
2023-04-23T09:07:50.373Z,100136.38
2023-04-23T09:10:18.684Z,100132.94
2023-04-23T09:12:46.891Z,100129.97
2023-04-23T09:15:14.572Z,100132.63
2023-04-23T09:17:46.053Z,100135.81
2023-04-23T09:20:15.421Z,100136.00
2023-04-23T09:22:45.989Z,100132.81
2023-04-23T09:25:19.605Z,100137.84
2023-04-23T09:27:50.009Z,100136.47
2023-04-23T09:30:18.566Z,100131.94
2023-04-23T09:32:47.300Z,100132.41
2023-04-23T09:35:17.735Z,100135.09
2023-04-23T09:37:49.028Z,100138.16
2023-04-23T09:40:20.331Z,100143.00
2023-04-23T09:42:55.898Z,100145.03
2023-04-23T09:45:26.704Z,100147.03
2023-04-23T09:47:56.532Z,100148.69
2023-04-23T09:50:37.074Z,100151.06
2023-04-23T09:53:09.167Z,100150.53
2023-04-23T09:55:39.833Z,100146.53
2023-04-23T09:58:12.703Z,100143.16
2023-04-23T10:00:40.932Z,100145.69
2023-04-23T10:03:10.099Z,100144.66
2023-04-23T10:08:15.196Z,100145.88
2023-04-23T10:10:57.498Z,100147.03
2023-04-23T10:13:30.909Z,100158.94
2023-04-23T10:16:10.141Z,100148.75
2023-04-23T10:18:42.236Z,100139.69
2023-04-23T10:21:11.970Z,100145.91
2023-04-23T10:23:43.086Z,100145.06
2023-04-23T10:26:15.171Z,100151.25
2023-04-23T10:28:48.222Z,100151.75
2023-04-23T10:31:16.384Z,100152.63
2023-04-23T10:33:55.990Z,100153.78
2023-04-23T10:36:27.843Z,100162.66
2023-04-23T10:39:00.277Z,100159.97
2023-04-23T10:41:43.606Z,100156.97
2023-04-23T10:44:17.225Z,100155.81
2023-04-23T10:46:58.783Z,100158.16
2023-04-23T10:49:31.336Z,100156.97
2023-04-23T10:54:36.244Z,100161.50
2023-04-23T10:57:06.011Z,100164.03
2023-04-23T10:59:35.790Z,100161.50
2023-04-23T11:02:07.165Z,100164.03
2023-04-23T11:04:37.580Z,100159.31
2023-04-23T11:07:10.488Z,100169.38
2023-04-23T11:09:44.608Z,100159.13
2023-04-23T11:12:14.413Z,100164.00
2023-04-23T11:14:46.164Z,100169.13
2023-04-23T11:17:19.165Z,100164.41
2023-04-23T11:20:07.417Z,100179.09
2023-04-23T11:22:39.142Z,100167.81
2023-04-23T11:25:27.102Z,100180.13
2023-04-23T11:27:56.219Z,100176.06
2023-04-23T11:30:25.827Z,100182.59
2023-04-23T11:32:55.940Z,100177.72
2023-04-23T11:35:28.508Z,100180.03
2023-04-23T11:37:57.067Z,100184.22
2023-04-23T11:40:24.802Z,100188.50
2023-04-23T11:42:57.714Z,100180.56
2023-04-23T11:45:29.701Z,100185.50
2023-04-23T11:47:59.520Z,100194.47
2023-04-23T11:50:39.137Z,100195.19
2023-04-23T11:53:09.058Z,100200.59
2023-04-23T11:55:37.176Z,100205.44
2023-04-23T11:58:04.716Z,100204.13
2023-04-23T12:00:32.318Z,100208.47
2023-04-23T12:03:01.675Z,100208.31
2023-04-23T12:05:36.892Z,100207.66
2023-04-23T12:08:17.994Z,100216.03
2023-04-23T12:10:54.812Z,100214.38
2023-04-23T12:13:26.364Z,100213.53
2023-04-23T12:15:59.103Z,100223.44
2023-04-23T12:18:29.829Z,100213.88
2023-04-23T12:21:10.699Z,100229.81
2023-04-23T12:23:39.980Z,100223.13
2023-04-23T12:26:16.011Z,100217.75
2023-04-23T12:28:54.196Z,100219.13
2023-04-23T12:31:27.833Z,100232.84
2023-04-23T12:34:09.506Z,100224.41
2023-04-23T12:36:38.719Z,100225.97
2023-04-23T12:39:33.923Z,100216.00
2023-04-23T12:42:06.884Z,100220.69
2023-04-23T12:44:36.169Z,100229.09
2023-04-23T12:47:15.396Z,100228.75
2023-04-23T12:49:43.940Z,100233.06
2023-04-23T12:52:13.854Z,100231.75
2023-04-23T12:54:42.296Z,100235.63
2023-04-23T12:57:14.402Z,100232.66
2023-04-23T12:59:42.214Z,100234.03
2023-04-23T13:02:10.100Z,100234.50
2023-04-23T13:04:37.823Z,100234.59
2023-04-23T13:07:05.361Z,100235.59
2023-04-23T13:09:33.033Z,100239.28
2023-04-23T13:12:00.962Z,100223.34
2023-04-23T13:14:29.069Z,100227.16
2023-04-23T13:16:58.067Z,100238.72
2023-04-23T13:19:25.810Z,100241.59
2023-04-23T13:21:53.812Z,100237.94
2023-04-23T13:24:21.597Z,100248.22
2023-04-23T13:26:49.326Z,100243.66
2023-04-23T13:29:16.895Z,100242.47
2023-04-23T13:31:44.421Z,100248.31
2023-04-23T13:34:12.016Z,100248.00
2023-04-23T13:36:41.700Z,100244.53
2023-04-23T13:39:11.157Z,100245.63
2023-04-23T13:41:38.792Z,100246.88
2023-04-23T13:44:06.426Z,100240.22
2023-04-23T13:46:34.129Z,100253.13
2023-04-23T13:49:01.800Z,100256.59
2023-04-23T13:51:35.228Z,100242.47
2023-04-23T13:54:03.819Z,100241.16
2023-04-23T13:56:31.841Z,100246.16
2023-04-23T14:01:34.592Z,100256.75
2023-04-23T14:04:04.375Z,100251.91
2023-04-23T14:06:32.291Z,100256.44
2023-04-23T14:08:59.836Z,100257.06
2023-04-23T14:11:27.503Z,100253.25
2023-04-23T14:13:56.467Z,100258.25
2023-04-23T14:16:24.237Z,100258.63
2023-04-23T14:18:51.926Z,100263.50
2023-04-23T14:21:19.473Z,100263.19
2023-04-23T14:24:17.285Z,100263.91
2023-04-23T14:26:49.149Z,100263.44
2023-04-23T14:29:23.527Z,100265.91
2023-04-23T14:31:51.880Z,100266.97
2023-04-23T14:34:19.381Z,100269.53
2023-04-23T14:36:49.249Z,100271.94
2023-04-23T14:39:17.262Z,100279.22
2023-04-23T14:41:45.457Z,100290.69
2023-04-23T14:44:13.165Z,100290.41
2023-04-23T14:46:40.828Z,100294.00
2023-04-23T14:49:08.985Z,100294.56
2023-04-23T14:51:37.574Z,100288.22
2023-04-23T14:54:05.473Z,100289.59
2023-04-23T14:56:33.043Z,100286.75
2023-04-23T14:59:00.737Z,100284.22
2023-04-23T15:01:29.558Z,100291.97
2023-04-23T15:03:57.348Z,100284.09
2023-04-23T15:06:25.026Z,100287.78
2023-04-23T15:08:52.739Z,100292.66
2023-04-23T15:11:20.658Z,100288.13
2023-04-23T15:14:23.424Z,100295.00
2023-04-23T15:16:51.972Z,100299.72
2023-04-23T15:19:19.619Z,100298.34
2023-04-23T15:21:48.296Z,100297.84
2023-04-23T15:24:16.604Z,100302.56
2023-04-23T15:26:48.782Z,100300.03
2023-04-23T15:29:16.634Z,100297.84
2023-04-23T15:31:44.227Z,100305.75
2023-04-23T15:34:12.396Z,100305.75
2023-04-23T15:36:40.063Z,100299.69
2023-04-23T15:39:08.737Z,100303.19
2023-04-23T15:41:39.432Z,100312.09
2023-04-23T15:44:12.104Z,100308.38
2023-04-23T15:46:40.181Z,100312.69
2023-04-23T15:49:07.931Z,100313.34
2023-04-23T15:51:36.495Z,100312.13
2023-04-23T15:54:08.288Z,100314.69
2023-04-23T15:56:36.657Z,100318.34
2023-04-23T15:59:04.235Z,100321.34
2023-04-23T16:01:31.933Z,100322.53
2023-04-23T16:04:09.478Z,100325.53
2023-04-23T16:06:38.227Z,100323.19
2023-04-23T16:09:08.982Z,100319.47
2023-04-23T16:11:38.127Z,100328.41
2023-04-23T16:14:06.383Z,100326.56
2023-04-23T16:16:34.164Z,100320.75
2023-04-23T16:19:04.834Z,100324.44
2023-04-23T16:21:32.800Z,100338.06
2023-04-23T16:24:00.352Z,100334.53
2023-04-23T16:26:29.446Z,100339.53
2023-04-23T16:29:16.466Z,100338.19
2023-04-23T16:31:45.186Z,100344.22
2023-04-23T16:34:12.745Z,100350.09
2023-04-23T16:36:40.387Z,100353.47
2023-04-23T16:39:07.946Z,100355.63
2023-04-23T16:41:35.544Z,100352.78
2023-04-23T16:44:03.095Z,100356.09
2023-04-23T16:46:31.793Z,100367.84
2023-04-23T16:48:59.952Z,100365.66
2023-04-23T16:51:28.473Z,100369.47
2023-04-23T16:53:57.263Z,100377.44
2023-04-23T16:56:25.500Z,100378.88
2023-04-23T16:58:53.156Z,100385.19
2023-04-23T17:01:20.855Z,100386.66
2023-04-23T17:03:48.589Z,100392.81
2023-04-23T17:06:25.367Z,100388.22
2023-04-23T17:08:53.633Z,100404.78
2023-04-23T17:11:21.783Z,100413.47
2023-04-23T17:13:49.715Z,100400.50
2023-04-23T17:16:17.544Z,100410.56
2023-04-23T17:18:45.525Z,100414.66
2023-04-23T17:21:13.410Z,100412.28
2023-04-23T17:23:40.962Z,100414.44
2023-04-23T17:26:08.507Z,100415.28
2023-04-23T17:28:41.094Z,100415.41
2023-04-23T17:31:09.004Z,100421.34
2023-04-23T17:33:36.679Z,100426.00
2023-04-23T17:36:04.623Z,100424.16
2023-04-23T17:38:32.181Z,100433.88
2023-04-23T17:41:00.062Z,100427.84
2023-04-23T17:43:27.850Z,100429.13
2023-04-23T17:45:55.406Z,100431.56
2023-04-23T17:48:23.541Z,100435.84
2023-04-23T17:50:51.354Z,100441.97
2023-04-23T17:53:18.917Z,100451.63
2023-04-23T17:55:46.973Z,100458.72
2023-04-23T17:58:14.619Z,100458.31
2023-04-23T18:00:43.084Z,100454.72
2023-04-23T18:03:12.020Z,100449.78
2023-04-23T18:05:39.982Z,100457.16
2023-04-23T18:08:08.311Z,100451.91
2023-04-23T18:10:36.045Z,100463.09
2023-04-23T18:13:06.530Z,100463.50
2023-04-23T18:15:34.065Z,100465.66
2023-04-23T18:18:01.668Z,100473.00
2023-04-23T18:20:30.338Z,100479.50
2023-04-23T18:22:57.926Z,100478.22
2023-04-23T18:25:26.854Z,100474.00
2023-04-23T18:27:54.390Z,100480.22
2023-04-23T18:30:25.786Z,100486.25
2023-04-23T18:33:09.022Z,100492.75
2023-04-23T18:35:36.602Z,100488.09
2023-04-23T18:38:11.063Z,100500.09
2023-04-23T18:40:38.650Z,100493.06
2023-04-23T18:43:06.657Z,100497.31
2023-04-23T18:45:34.834Z,100501.97
2023-04-23T18:48:28.031Z,100510.41
2023-04-23T18:50:57.952Z,100515.38
2023-04-23T18:53:25.535Z,100519.47
2023-04-23T18:55:53.038Z,100529.31
2023-04-23T18:58:20.604Z,100529.00
2023-04-23T19:00:48.252Z,100530.25
2023-04-23T19:03:26.113Z,100548.16
2023-04-23T19:05:55.028Z,100543.94
2023-04-23T19:08:28.317Z,100546.75
2023-04-23T19:10:56.488Z,100540.28
2023-04-23T19:13:24.499Z,100551.63
2023-04-23T19:15:52.312Z,100554.00
2023-04-23T19:18:19.900Z,100560.34
2023-04-23T19:20:47.502Z,100555.28
2023-04-23T19:23:15.254Z,100569.47
2023-04-23T19:25:43.006Z,100568.06
2023-04-23T19:28:10.623Z,100579.03
2023-04-23T19:30:38.294Z,100580.13
2023-04-23T19:33:06.091Z,100581.84
2023-04-23T19:35:33.687Z,100585.34
2023-04-23T19:38:01.234Z,100591.81
2023-04-23T19:40:29.344Z,100594.47
2023-04-23T19:42:56.913Z,100600.66
2023-04-23T19:45:24.788Z,100598.16
2023-04-23T19:47:52.906Z,100607.38
2023-04-23T19:50:20.761Z,100606.97
2023-04-23T19:52:48.496Z,100612.84
2023-04-23T19:55:18.199Z,100625.75
2023-04-23T19:57:46.224Z,100626.69
2023-04-23T20:00:14.490Z,100620.31
2023-04-23T20:02:42.312Z,100626.19
2023-04-23T20:05:12.960Z,100634.47
2023-04-23T20:07:40.727Z,100640.91
2023-04-23T20:10:08.709Z,100633.44
2023-04-23T20:12:36.436Z,100633.69
2023-04-23T20:15:04.261Z,100642.94
2023-04-23T20:17:32.938Z,100643.19
2023-04-23T20:20:02.884Z,100650.88
2023-04-23T20:22:31.008Z,100644.81
2023-04-23T20:24:59.157Z,100655.47
2023-04-23T20:27:26.928Z,100666.31
2023-04-23T20:29:54.583Z,100670.28
2023-04-23T20:32:22.233Z,100675.88
2023-04-23T20:34:49.749Z,100679.28
2023-04-23T20:37:21.614Z,100677.31
2023-04-23T20:39:50.095Z,100677.44
2023-04-23T20:42:17.683Z,100692.34
2023-04-23T20:44:49.232Z,100689.56
2023-04-23T20:47:16.838Z,100688.81
2023-04-23T20:49:44.563Z,100694.56
2023-04-23T20:52:13.615Z,100698.56
2023-04-23T20:54:41.605Z,100705.97
2023-04-23T20:57:09.149Z,100711.56
2023-04-23T20:59:36.671Z,100702.63
2023-04-23T21:02:06.591Z,100711.31
2023-04-23T21:04:34.397Z,100709.63
2023-04-23T21:07:02.141Z,100703.81
2023-04-23T21:09:29.856Z,100705.44
2023-04-23T21:11:57.571Z,100705.94
2023-04-23T21:14:25.205Z,100715.03
2023-04-23T21:16:56.288Z,100717.22
2023-04-23T21:19:23.839Z,100726.44
2023-04-23T21:21:51.600Z,100719.28
2023-04-23T21:24:19.233Z,100726.44
2023-04-23T21:26:46.813Z,100723.19
2023-04-23T21:29:14.484Z,100735.53
2023-04-23T21:31:51.473Z,100735.66
2023-04-23T21:34:22.340Z,100742.31
2023-04-23T21:36:51.631Z,100735.91
2023-04-23T21:39:19.289Z,100743.19
2023-04-23T21:41:47.329Z,100747.09
2023-04-23T21:44:14.976Z,100739.69
2023-04-23T21:46:43.286Z,100745.38
2023-04-23T21:49:11.984Z,100748.16
2023-04-23T21:51:41.127Z,100742.97
2023-04-23T21:54:09.339Z,100739.56
2023-04-23T21:56:37.331Z,100750.47
2023-04-23T21:59:04.861Z,100741.88
2023-04-23T22:01:35.037Z,100742.84
2023-04-23T22:04:04.790Z,100742.72
2023-04-23T22:06:34.431Z,100743.69
2023-04-23T22:09:02.435Z,100745.75
2023-04-23T22:11:31.386Z,100756.41
2023-04-23T22:14:00.165Z,100750.94
2023-04-23T22:16:29.056Z,100753.38
2023-04-23T22:18:57.492Z,100760.16
2023-04-23T22:21:25.168Z,100764.28
2023-04-23T22:23:52.852Z,100765.13
2023-04-23T22:26:21.219Z,100760.78
2023-04-23T22:28:48.790Z,100760.28
2023-04-23T22:31:17.456Z,100763.31
2023-04-23T22:33:45.285Z,100766.81
2023-04-23T22:36:14.058Z,100768.63
2023-04-23T22:38:42.039Z,100772.47
2023-04-23T22:41:09.612Z,100771.78
2023-04-23T22:43:37.197Z,100769.97
2023-04-23T22:46:04.828Z,100774.31
2023-04-23T22:48:32.554Z,100769.81
2023-04-23T22:51:00.058Z,100768.38
2023-04-23T22:53:27.615Z,100771.16
2023-04-23T22:55:56.411Z,100768.50
2023-04-23T22:58:23.971Z,100775.88
2023-04-23T23:00:51.501Z,100776.13
2023-04-23T23:03:19.287Z,100774.53
2023-04-23T23:05:47.108Z,100789.06
2023-04-23T23:08:14.654Z,100787.59
2023-04-23T23:10:42.229Z,100790.63
2023-04-23T23:13:09.742Z,100790.72
2023-04-23T23:15:37.947Z,100791.22
2023-04-23T23:18:06.275Z,100790.69
2023-04-23T23:20:33.951Z,100786.69
2023-04-23T23:23:01.485Z,100789.31
2023-04-23T23:25:29.123Z,100793.41
2023-04-23T23:27:56.666Z,100791.91
2023-04-23T23:30:25.724Z,100790.59
2023-04-23T23:32:53.386Z,100796.84
2023-04-23T23:35:21.063Z,100804.34
2023-04-23T23:37:48.623Z,100801.06
2023-04-23T23:40:16.357Z,100801.13
2023-04-23T23:42:43.892Z,100807.44
2023-04-23T23:45:11.601Z,100812.13
2023-04-23T23:47:39.252Z,100815.00
2023-04-23T23:50:07.404Z,100816.28
2023-04-23T23:52:34.944Z,100812.19
2023-04-23T23:55:02.591Z,100812.63
2023-04-23T23:57:30.221Z,100819.13
2023-04-23T23:59:57.757Z,100817.63
